Time;durP1;ratioP1;P1;durP2;ratioP2;P2;SDS_P1;SDS_P2;PMS_P1;PMS_P2;Temp;Humidity;BMP_temperature;BMP_pressure;BME280_temperature;BME280_humidity;BME280_pressure;Samples;Min_cycle;Max_cycle;Signal;HPM_P1;HPM_P2
2022/10/21 00:00:04;;;;;;;6.67;5.57;;;;;;;12.32;61.95;95507.94;5112705;28;20192;-81
2022/10/21 00:02:33;;;;;;;6.90;5.90;;;;;;;12.30;62.19;95513.19;5112456;28;20306;-81
2022/10/21 00:04:59;;;;;;;8.53;6.07;;;;;;;12.28;62.18;95513.31;5113034;28;20193;-81
2022/10/21 00:07:26;;;;;;;6.23;5.67;;;;;;;11.25;62.04;95349.25;5112810;28;20178;-81
2022/10/21 00:09:53;;;;;;;6.80;6.10;;;;;;;12.23;62.21;95502.63;5112670;28;20200;-81
2022/10/21 00:12:20;;;;;;;8.17;6.27;;;;;;;12.22;62.34;95501.03;5112783;28;20538;-83
2022/10/21 00:14:47;;;;;;;6.87;5.90;;;;;;;12.21;62.25;95503.69;5112846;28;20189;-82
2022/10/21 00:17:13;;;;;;;7.17;5.97;;;;;;;12.19;62.26;95508.16;5112295;28;20261;-83
2022/10/21 00:19:42;;;;;;;7.83;6.13;;;;;;;12.17;62.39;95499.75;5112535;28;20177;-83
2022/10/21 00:22:08;;;;;;;6.97;5.77;;;;;;;12.16;62.36;95498.94;5112225;28;20212;-82
2022/10/21 00:24:35;;;;;;;9.23;6.37;;;;;;;12.14;62.37;95497.47;5112667;28;20185;-83
2022/10/21 00:27:02;;;;;;;6.40;5.50;;;;;;;11.69;62.41;95428.50;5112473;28;20224;-84
2022/10/21 00:29:29;;;;;;;9.17;6.27;;;;;;;12.11;62.47;95497.72;5112233;28;20243;-82
2022/10/21 00:31:56;;;;;;;7.00;6.30;;;;;;;12.08;62.43;95493.66;5112095;28;20200;-84
2022/10/21 00:34:23;;;;;;;6.10;5.43;;;;;;;12.07;62.44;95492.03;5108116;28;20186;-81
2022/10/21 00:36:51;;;;;;;6.90;6.10;;;;;;;12.05;62.41;95489.59;5092129;28;20190;-82
2022/10/21 00:39:18;;;;;;;6.03;5.43;;;;;;;12.04;62.36;95495.66;5092898;28;20194;-81
2022/10/21 00:41:45;;;;;;;11.17;5.90;;;;;;;12.02;62.61;95491.59;5091985;28;20217;-82
2022/10/21 00:44:13;;;;;;;7.43;5.53;;;;;;;12.01;62.57;95493.34;5091454;28;20193;-83
2022/10/21 00:46:43;;;;;;;7.63;5.87;;;;;;;11.98;62.59;95487.66;5091686;28;20190;-79
2022/10/21 00:49:17;;;;;;;6.83;5.53;;;;;;;11.68;62.57;95437.16;5091613;28;20185;-83
2022/10/21 00:51:47;;;;;;;10.63;6.20;;;;;;;11.74;62.61;95449.44;5091890;28;20186;-82
2022/10/21 00:54:16;;;;;;;13.13;6.73;;;;;;;11.93;62.54;95482.09;5091636;28;20212;-83
2022/10/21 00:56:45;;;;;;;6.77;5.50;;;;;;;11.75;62.43;95445.97;5091609;28;20197;-80
2022/10/21 00:59:13;;;;;;;7.73;5.73;;;;;;;11.75;62.46;95458.78;5091561;28;20186;-81
2022/10/21 01:01:40;;;;;;;6.47;5.13;;;;;;;11.89;62.60;95475.59;5091567;28;20221;-82
2022/10/21 01:04:06;;;;;;;7.07;5.87;;;;;;;11.81;62.41;95471.88;5097417;28;20185;-80
2022/10/21 01:06:34;;;;;;;7.00;5.77;;;;;;;11.86;62.62;95471.53;5112060;28;20219;-81
2022/10/21 01:09:02;;;;;;;7.00;5.37;;;;;;;11.82;62.59;95480.38;5112020;28;20200;-82
2022/10/21 01:11:34;;;;;;;5.80;5.20;;;;;;;10.73;62.42;95306.63;5114115;28;20196;-81
2022/10/21 01:14:30;;;;;;;6.30;5.70;;;;;;;11.80;62.71;95480.50;5117735;28;20192;-81
2022/10/21 01:17:06;;;;;;;5.77;5.10;;;;;;;11.76;62.74;95481.72;5123862;28;20185;-81
2022/10/21 01:20:02;;;;;;;12.60;6.17;;;;;;;11.73;62.77;95487.06;5117366;28;20184;-81
2022/10/21 01:22:51;;;;;;;5.57;5.07;;;;;;;11.71;62.74;95488.97;5113955;28;20217;-81
2022/10/21 01:25:40;;;;;;;8.37;5.37;;;;;;;11.62;62.82;95478.66;5112448;28;20224;-81
2022/10/21 01:28:23;;;;;;;6.10;5.10;;;;;;;11.68;62.74;95496.88;5102741;28;20230;-81
2022/10/21 01:30:56;;;;;;;7.10;5.23;;;;;;;11.65;62.70;95488.63;5069901;28;20189;-82
2022/10/21 01:33:39;;;;;;;5.80;5.07;;;;;;;10.98;62.76;95388.16;5069805;28;20182;-81
2022/10/21 01:36:21;;;;;;;7.93;6.03;;;;;;;10.70;62.70;95343.47;5069590;28;20217;-81
2022/10/21 01:39:02;;;;;;;6.97;5.70;;;;;;;11.59;62.83;95489.13;5085406;28;20833;-83
2022/10/21 01:41:35;;;;;;;9.47;5.93;;;;;;;11.56;62.70;95495.31;5111178;28;20212;-83
2022/10/21 01:44:09;;;;;;;7.10;5.83;;;;;;;10.40;63.05;95312.66;5110868;28;20192;-81
2022/10/21 01:46:43;;;;;;;7.20;5.83;;;;;;;11.38;62.75;95468.63;5118714;28;20211;-83
2022/10/21 01:49:17;;;;;;;6.60;5.57;;;;;;;11.53;62.98;95500.69;5120699;28;20242;-82
2022/10/21 01:51:44;;;;;;;8.27;6.37;;;;;;;11.51;62.86;95503.38;5125232;28;20212;-81
2022/10/21 01:54:18;;;;;;;6.97;5.83;;;;;;;11.28;62.97;95471.13;5098533;28;20185;-84
2022/10/21 01:56:48;;;;;;;7.47;6.13;;;;;;;11.49;62.88;95501.88;5089868;28;20613;-83
2022/10/21 01:59:17;;;;;;;6.30;5.63;;;;;;;11.45;62.90;95496.19;5089517;28;20190;-82
2022/10/21 02:01:48;;;;;;;8.73;6.43;;;;;;;11.46;62.93;95509.81;5108837;28;20228;-82
2022/10/21 02:04:16;;;;;;;8.93;6.53;;;;;;;11.45;62.84;95503.88;5110187;28;20189;-83
2022/10/21 02:06:43;;;;;;;9.00;6.13;;;;;;;9.80;63.05;95244.03;5110312;28;20200;-82
2022/10/21 02:09:10;;;;;;;8.10;6.20;;;;;;;11.25;62.88;95473.91;5109320;28;20641;-82
2022/10/21 02:11:38;;;;;;;9.27;6.13;;;;;;;10.66;63.04;95379.66;5100152;28;20190;-83
2022/10/21 02:14:10;;;;;;;12.63;6.40;;;;;;;10.48;62.92;95351.22;5090788;28;20664;-84
2022/10/21 02:16:39;;;;;;;8.87;6.17;;;;;;;11.38;63.01;95501.91;5089528;28;20688;-83
2022/10/21 02:19:14;;;;;;;9.97;6.50;;;;;;;11.37;63.16;95505.41;5089291;28;20196;-81
2022/10/21 02:21:41;;;;;;;7.83;6.83;;;;;;;11.07;63.15;95468.50;5090978;28;20207;-83
2022/10/21 02:24:15;;;;;;;17.10;6.80;;;;;;;10.41;63.05;95355.22;5089542;28;20567;-84
2022/10/21 02:26:42;;;;;;;6.57;5.87;;;;;;;11.32;63.23;95499.84;5087862;28;166890;-83
2022/10/21 02:29:10;;;;;;;9.00;6.00;;;;;;;11.30;63.13;95498.22;5102723;28;20182;-84
2022/10/21 02:31:53;;;;;;;8.47;6.13;;;;;;;11.28;63.34;95502.66;5096610;28;20203;-88
2022/10/21 02:34:29;;;;;;;9.83;6.43;;;;;;;11.26;63.21;95509.63;5110631;28;20310;-81
2022/10/21 02:37:01;;;;;;;8.83;6.60;;;;;;;11.25;63.03;95508.00;5110860;28;20193;-82
2022/10/21 02:39:33;;;;;;;8.73;5.73;;;;;;;11.23;63.25;95502.22;5110719;28;20192;-82
2022/10/21 02:42:04;;;;;;;7.77;6.43;;;;;;;10.70;63.10;95427.09;5110323;28;20219;-83
2022/10/21 02:44:31;;;;;;;8.70;6.00;;;;;;;11.20;63.32;95510.13;5110664;28;20204;-80
2022/10/21 02:46:58;;;;;;;9.43;5.70;;;;;;;10.13;63.16;95341.97;5110275;28;20193;-83
2022/10/21 02:49:26;;;;;;;6.70;5.03;;;;;;;11.18;63.14;95508.59;5110347;28;20185;-83
2022/10/21 02:51:54;;;;;;;7.27;5.73;;;;;;;11.09;63.18;95496.53;5110498;28;20197;-82
2022/10/21 02:54:20;;;;;;;9.07;5.90;;;;;;;10.91;63.28;95478.31;5110060;28;20189;-82
2022/10/21 02:56:47;;;;;;;8.07;5.83;;;;;;;11.13;63.29;95511.53;5110367;28;20192;-82
2022/10/21 02:59:14;;;;;;;8.20;5.93;;;;;;;11.12;63.15;95520.16;5110695;28;20204;-81
2022/10/21 03:01:41;;;;;;;6.83;6.10;;;;;;;11.11;63.29;95515.16;5109954;28;20221;-82
2022/10/21 03:04:08;;;;;;;7.03;5.30;;;;;;;11.09;63.21;95512.72;5109877;28;20650;-82
2022/10/21 03:06:37;;;;;;;7.00;5.77;;;;;;;10.14;63.26;95364.06;5109748;28;20200;-84
2022/10/21 03:09:04;;;;;;;8.27;5.93;;;;;;;9.69;63.28;95304.53;5110022;28;20196;-83
2022/10/21 03:11:31;;;;;;;6.43;5.50;;;;;;;11.05;63.27;95521.56;5109585;28;20267;-82
2022/10/21 03:13:58;;;;;;;7.07;5.67;;;;;;;11.05;63.30;95524.13;5109358;28;20192;-83
2022/10/21 03:16:24;;;;;;;7.50;5.63;;;;;;;10.68;63.27;95463.03;5109519;28;20212;-82
2022/10/21 03:18:51;;;;;;;6.47;5.57;;;;;;;10.99;63.32;95522.84;5109998;28;20185;-82
2022/10/21 03:21:18;;;;;;;10.10;5.83;;;;;;;11.00;63.27;95526.22;5111296;28;20184;-81
2022/10/21 03:23:46;;;;;;;8.83;6.43;;;;;;;10.98;63.23;95520.44;5107403;28;20189;-82
2022/10/21 03:26:13;;;;;;;7.37;5.50;;;;;;;10.96;63.31;95528.22;5112495;28;20204;-80
2022/10/21 03:28:40;;;;;;;8.40;6.17;;;;;;;10.96;63.36;95517.16;5113765;28;20610;-80
2022/10/21 03:31:08;;;;;;;8.37;6.20;;;;;;;10.95;63.20;95529.16;5113765;28;20184;-80
2022/10/21 03:33:35;;;;;;;7.53;6.17;;;;;;;10.55;63.19;95460.59;5113513;28;20193;-81
2022/10/21 03:36:02;;;;;;;6.77;5.73;;;;;;;10.92;63.34;95524.25;5113054;28;20182;-82
2022/10/21 03:38:28;;;;;;;8.27;5.87;;;;;;;10.90;63.38;95526.13;5113446;28;20287;-81
2022/10/21 03:40:57;;;;;;;7.53;6.20;;;;;;;10.90;63.31;95526.13;5113549;28;20197;-83
2022/10/21 03:43:24;;;;;;;8.23;6.10;;;;;;;10.76;63.25;95504.19;5112872;28;20205;-82
2022/10/21 03:45:50;;;;;;;9.00;6.27;;;;;;;10.75;63.28;95510.25;5113453;28;20173;-82
2022/10/21 03:48:20;;;;;;;7.67;6.23;;;;;;;10.86;63.36;95531.63;5113191;28;20188;-82
2022/10/21 03:50:47;;;;;;;8.13;6.63;;;;;;;10.41;63.43;95458.31;5113145;28;20189;-81
2022/10/21 03:53:14;;;;;;;7.87;7.07;;;;;;;10.84;63.53;95528.34;5113461;28;20188;-82
2022/10/21 03:55:48;;;;;;;7.47;6.10;;;;;;;10.83;63.32;95540.31;5114211;28;20197;-84
2022/10/21 03:58:16;;;;;;;9.13;6.83;;;;;;;10.49;63.48;95488.38;5114873;28;20185;-83
2022/10/21 04:00:50;;;;;;;10.07;6.77;;;;;;;9.65;63.49;95349.09;5116449;28;20189;-83
2022/10/21 04:03:26;;;;;;;9.60;7.63;;;;;;;10.78;63.61;95538.13;5119869;28;20769;-82
2022/10/21 04:05:54;;;;;;;7.17;6.07;;;;;;;10.60;63.36;95500.38;5113271;28;20219;-81
2022/10/21 04:08:21;;;;;;;11.90;7.30;;;;;;;10.75;63.60;95532.44;5112337;28;20211;-82
2022/10/21 04:10:48;;;;;;;9.50;6.17;;;;;;;9.77;63.50;95377.09;5113028;28;20291;-81
2022/10/21 04:13:16;;;;;;;8.87;6.97;;;;;;;10.72;63.63;95528.38;5113453;28;20185;-83
2022/10/21 04:15:44;;;;;;;8.10;6.50;;;;;;;9.53;63.85;95354.19;5116527;28;20219;-81
2022/10/21 04:18:11;;;;;;;14.70;6.70;;;;;;;10.39;63.58;95475.50;5111949;27;20536;-82
2022/10/21 04:20:38;;;;;;;11.10;7.77;;;;;;;10.69;63.66;95528.59;5112138;28;20254;-81
2022/10/21 04:23:04;;;;;;;9.23;7.23;;;;;;;10.68;63.73;95529.53;5112554;28;20217;-81
2022/10/21 04:25:32;;;;;;;12.47;7.00;;;;;;;10.65;63.88;95522.09;5112478;28;20188;-83
2022/10/21 04:27:58;;;;;;;9.00;6.50;;;;;;;10.66;63.82;95522.91;5112685;28;20837;-82
2022/10/21 04:30:27;;;;;;;10.97;7.33;;;;;;;9.72;63.73;95375.81;5112889;28;20196;-85
2022/10/21 04:32:53;;;;;;;9.43;6.17;;;;;;;10.50;63.68;95503.63;5112622;28;20185;-82
2022/10/21 04:35:20;;;;;;;9.17;7.00;;;;;;;10.64;63.73;95524.78;5112281;28;20185;-81
2022/10/21 04:37:47;;;;;;;7.97;6.63;;;;;;;10.48;63.89;95502.09;5113262;28;20182;-81
2022/10/21 04:40:14;;;;;;;9.87;6.73;;;;;;;10.37;63.88;95484.22;5112352;28;20192;-82
2022/10/21 04:42:41;;;;;;;13.57;7.17;;;;;;;10.32;63.78;95474.34;5111883;28;20227;-82
2022/10/21 04:45:09;;;;;;;11.73;6.80;;;;;;;10.61;63.81;95530.94;5112257;28;20270;-81
2022/10/21 04:47:37;;;;;;;11.87;8.13;;;;;;;10.61;63.92;95533.50;5112255;28;20200;-83
2022/10/21 04:50:04;;;;;;;8.17;7.03;;;;;;;10.29;64.01;95477.13;5111850;28;20337;-82
2022/10/21 04:52:31;;;;;;;13.03;8.07;;;;;;;10.60;63.73;95531.88;5112260;28;20181;-82
2022/10/21 04:54:58;;;;;;;14.57;6.90;;;;;;;10.61;63.91;95533.50;5112178;28;20177;-86
2022/10/21 04:57:25;;;;;;;10.47;7.23;;;;;;;9.86;63.84;95411.34;5112499;28;20221;-81
2022/10/21 04:59:52;;;;;;;14.23;7.53;;;;;;;10.40;63.90;95492.47;5112365;28;20193;-80
2022/10/21 05:02:19;;;;;;;10.03;7.47;;;;;;;10.65;64.08;95531.50;5111972;28;20823;-81
2022/10/21 05:04:47;;;;;;;10.80;7.13;;;;;;;10.65;63.70;95537.44;5111976;28;20193;-83
2022/10/21 05:07:14;;;;;;;17.13;9.00;;;;;;;10.68;63.72;95532.09;5111070;28;20200;-82
2022/10/21 05:09:40;;;;;;;8.00;5.67;;;;;;;10.82;94.84;95502.06;5117434;28;20212;-83
2022/10/21 05:12:07;;;;;;;17.03;7.87;;;;;;;11.27;89.06;95531.75;5119420;27;20200;-84
2022/10/21 05:14:34;;;;;;;11.93;6.53;;;;;;;11.39;82.78;95534.28;5113022;28;20200;-86
2022/10/21 05:17:02;;;;;;;18.57;8.37;;;;;;;11.46;79.35;95543.91;5112764;28;20192;-83
2022/10/21 05:19:29;;;;;;;19.33;8.03;;;;;;;11.01;77.65;95459.59;5113870;28;20189;-90
2022/10/21 05:21:58;;;;;;;14.30;8.27;;;;;;;11.05;76.13;95455.00;5113086;28;20201;-91
2022/10/21 05:24:25;;;;;;;17.50;7.47;;;;;;;11.57;75.47;95543.03;5113506;28;20196;-82
2022/10/21 05:26:52;;;;;;;13.17;7.43;;;;;;;11.15;74.76;95473.03;5110844;28;20216;-81
2022/10/21 05:29:19;;;;;;;18.50;7.60;;;;;;;11.50;74.26;95524.81;5102427;28;20209;-82
2022/10/21 05:31:45;;;;;;;17.87;8.67;;;;;;;11.52;73.78;95524.66;5102180;28;20200;-78
2022/10/21 05:34:12;;;;;;;10.70;7.70;;;;;;;11.51;73.09;95512.81;5104163;28;20189;-79
2022/10/21 05:36:39;;;;;;;18.13;8.60;;;;;;;11.52;72.83;95514.44;5110809;28;20682;-81
2022/10/21 05:39:10;;;;;;;20.13;9.53;;;;;;;11.79;72.34;95549.84;5104967;28;20672;-79
2022/10/21 05:41:37;;;;;;;16.73;8.70;;;;;;;11.85;72.13;95553.69;5099497;28;20185;-79
2022/10/21 05:44:04;;;;;;;17.40;8.53;;;;;;;11.89;71.62;95553.31;5108988;28;20726;-80
2022/10/21 05:46:31;;;;;;;17.50;8.27;;;;;;;11.94;71.12;95555.50;5099092;28;20185;-80
2022/10/21 05:48:57;;;;;;;18.90;9.13;;;;;;;11.85;70.63;95533.19;5103316;28;20204;-80
2022/10/21 05:51:25;;;;;;;25.70;10.23;;;;;;;12.08;70.35;95551.81;5096457;28;20532;-79
2022/10/21 05:53:52;;;;;;;19.70;9.97;;;;;;;11.81;69.83;95500.06;5103144;28;20536;-79
2022/10/21 05:56:21;;;;;;;17.60;9.80;;;;;;;12.25;69.41;95561.50;5104062;28;20185;-79
2022/10/21 05:58:48;;;;;;;17.07;9.80;;;;;;;10.99;68.80;95356.50;5103661;28;20219;-78
2022/10/21 06:01:15;;;;;;;17.80;9.10;;;;;;;12.47;68.39;95570.78;5092038;28;20204;-80
2022/10/21 06:03:42;;;;;;;22.47;10.27;;;;;;;12.18;67.77;95507.34;5097766;28;20699;-80
2022/10/21 06:06:09;;;;;;;15.43;9.57;;;;;;;12.10;67.21;95484.09;5104220;28;20204;-80
2022/10/21 06:08:38;;;;;;;13.00;9.50;;;;;;;12.88;66.53;95587.06;5108462;28;20675;-79
2022/10/21 06:11:07;;;;;;;15.83;8.97;;;;;;;13.07;66.20;95584.53;5107295;28;20189;-81
2022/10/21 06:13:36;;;;;;;18.67;10.17;;;;;;;13.24;66.25;95567.72;5113309;28;20617;-78
2022/10/21 06:16:04;;;;;;;14.40;8.90;;;;;;;13.81;67.19;95584.94;5105240;28;20651;-80
2022/10/21 06:18:31;;;;;;;14.63;8.80;;;;;;;14.17;67.77;95563.81;5111251;28;20553;-82
2022/10/21 06:20:58;;;;;;;14.13;9.00;;;;;;;14.97;67.37;95599.34;5103833;28;20643;-84
2022/10/21 06:23:25;;;;;;;15.63;8.53;;;;;;;15.64;66.53;95591.41;5100465;28;20209;-84
2022/10/21 06:25:56;;;;;;;13.93;8.63;;;;;;;16.15;65.10;95564.09;5100684;28;20194;-82
2022/10/21 06:28:23;;;;;;;10.67;8.03;;;;;;;17.05;63.97;95602.47;5094738;28;20213;-80
2022/10/21 06:30:51;;;;;;;11.13;7.73;;;;;;;17.78;62.89;95607.03;5106694;28;20205;-84
2022/10/21 06:33:18;;;;;;;12.27;7.53;;;;;;;18.49;61.14;95600.44;5099051;28;20201;-83
2022/10/21 06:35:45;;;;;;;12.20;6.90;;;;;;;19.21;59.60;95607.38;5102710;28;20189;-80
2022/10/21 06:38:12;;;;;;;14.03;7.30;;;;;;;19.89;58.12;95614.50;5099998;28;20192;-83
2022/10/21 06:40:39;;;;;;;11.77;7.83;;;;;;;20.57;56.70;95609.47;5100761;28;20192;-81
2022/10/21 06:43:06;;;;;;;9.00;6.77;;;;;;;20.83;55.38;95557.84;5103362;28;20227;-83
2022/10/21 06:45:32;;;;;;;10.43;6.77;;;;;;;21.79;53.90;95608.06;5097185;28;20606;-82
2022/10/21 06:48:01;;;;;;;11.07;6.78;;;;;;;22.35;52.63;95607.41;5118439;28;20181;-81
2022/10/21 06:50:27;;;;;;;11.52;7.25;;;;;;;22.89;51.33;95610.22;5121797;28;20186;-80
2022/10/21 06:52:54;;;;;;;11.88;6.95;;;;;;;23.09;50.27;95570.38;5111880;28;20204;-81
2022/10/21 06:55:22;;;;;;;14.88;6.93;;;;;;;23.55;49.33;95565.34;5103679;28;20257;-80
2022/10/21 06:57:48;;;;;;;10.82;7.07;;;;;;;24.01;48.26;95559.44;5100149;28;20189;-82
2022/10/21 07:00:16;;;;;;;10.55;7.40;;;;;;;24.65;47.31;95590.19;5102634;28;20657;-83
2022/10/21 07:02:42;;;;;;;9.20;6.72;;;;;;;24.20;46.26;95455.88;5096825;28;20236;-82
2022/10/21 07:05:11;;;;;;;11.43;6.85;;;;;;;25.19;45.49;95543.81;5106317;28;20192;-79
2022/10/21 07:07:37;;;;;;;10.68;6.88;;;;;;;26.02;45.10;95619.78;5103158;28;20189;-80
2022/10/21 07:10:05;;;;;;;11.93;6.80;;;;;;;25.58;44.16;95489.63;5094757;28;20185;-81
2022/10/21 07:12:32;;;;;;;10.77;6.45;;;;;;;26.02;43.65;95509.69;5099599;28;20190;-81
2022/10/21 07:14:58;;;;;;;10.10;7.03;;;;;;;27.01;42.77;95618.22;5095315;28;20189;-81
2022/10/21 07:17:30;;;;;;;7.97;6.00;;;;;;;26.51;42.51;95501.00;5101206;28;20194;-81
2022/10/21 07:19:57;;;;;;;8.80;6.30;;;;;;;27.54;41.91;95619.47;5105362;28;20320;-82
2022/10/21 07:22:25;;;;;;;8.05;5.95;;;;;;;27.79;41.30;95622.81;5099856;28;20181;-81
2022/10/21 07:24:52;;;;;;;7.40;6.15;;;;;;;28.02;40.90;95622.09;5101794;28;20190;-81
2022/10/21 07:27:19;;;;;;;6.53;5.68;;;;;;;27.33;40.72;95474.44;5105494;28;20327;-81
2022/10/21 07:29:46;;;;;;;8.90;5.80;;;;;;;28.48;40.25;95631.16;5097054;28;20190;-81
2022/10/21 07:32:13;;;;;;;8.43;5.78;;;;;;;28.29;39.57;95564.66;5102442;28;20188;-82
2022/10/21 07:34:39;;;;;;;6.97;5.35;;;;;;;28.83;39.25;95618.03;5102969;28;20202;-82
2022/10/21 07:37:06;;;;;;;7.03;5.38;;;;;;;28.99;38.96;95624.47;5101966;28;20664;-81
2022/10/21 07:39:34;;;;;;;8.52;5.47;;;;;;;29.13;38.31;95615.28;5115361;28;20197;-82
2022/10/21 07:42:01;;;;;;;7.20;5.72;;;;;;;29.09;38.36;95587.00;5121171;28;20212;-82
2022/10/21 07:44:28;;;;;;;7.32;5.20;;;;;;;29.38;37.91;95627.41;5122685;28;20223;-79
2022/10/21 07:46:55;;;;;;;8.77;5.93;;;;;;;29.45;37.93;95615.69;5104864;28;20209;-80
2022/10/21 07:49:24;;;;;;;6.63;5.43;;;;;;;29.28;37.79;95577.94;5101274;28;20189;-79
2022/10/21 07:51:52;;;;;;;8.13;5.70;;;;;;;29.37;37.42;95581.00;5099825;28;20219;-81
2022/10/21 07:54:19;;;;;;;6.40;4.97;;;;;;;29.60;37.09;95614.41;5102893;28;20193;-81
2022/10/21 07:56:51;;;;;;;8.70;5.45;;;;;;;29.56;37.58;95618.56;5102622;28;20194;-80
2022/10/21 07:59:20;;;;;;;7.70;5.25;;;;;;;29.45;37.92;95617.53;5100859;28;21094;-82
2022/10/21 08:01:47;;;;;;;8.13;6.63;;;;;;;29.23;38.54;95614.69;5105533;28;20190;-81
2022/10/21 08:04:16;;;;;;;8.50;5.72;;;;;;;28.98;38.17;95615.78;5099833;28;20707;-81
2022/10/21 08:06:44;;;;;;;8.57;6.18;;;;;;;28.56;38.61;95590.56;5104316;28;20185;-81
2022/10/21 08:09:11;;;;;;;6.95;6.25;;;;;;;28.21;38.42;95586.03;5106933;28;20212;-80
2022/10/21 08:11:38;;;;;;;10.77;6.10;;;;;;;27.97;38.35;95607.00;5103283;28;20307;-82
2022/10/21 08:14:07;;;;;;;7.50;5.97;;;;;;;27.65;38.20;95602.97;5103609;28;20576;-82
2022/10/21 08:16:35;;;;;;;7.55;6.20;;;;;;;27.28;38.49;95595.13;5106532;28;20211;-81
2022/10/21 08:19:03;;;;;;;8.90;6.60;;;;;;;26.39;38.74;95501.91;5103416;27;20195;-81
2022/10/21 08:21:30;;;;;;;9.40;6.70;;;;;;;26.65;38.81;95587.47;5097546;28;20190;-80
2022/10/21 08:23:57;;;;;;;9.27;6.75;;;;;;;25.46;38.63;95448.38;5103244;28;20302;-80
2022/10/21 08:26:24;;;;;;;8.48;7.22;;;;;;;26.06;38.94;95586.09;5105129;28;20518;-82
2022/10/21 08:28:51;;;;;;;8.98;6.88;;;;;;;25.72;39.13;95585.47;5108279;28;20196;-80
2022/10/21 08:31:22;;;;;;;10.98;6.70;;;;;;;25.51;38.96;95594.44;5107822;28;20201;-82
2022/10/21 08:33:49;;;;;;;7.75;6.82;;;;;;;25.24;39.53;95596.34;5103037;28;20209;-81
2022/10/21 08:36:18;;;;;;;7.60;6.72;;;;;;;24.98;39.70;95592.78;5100114;28;20200;-81
2022/10/21 08:38:45;;;;;;;7.95;6.00;;;;;;;23.86;39.62;95449.06;5106482;28;20189;-80
2022/10/21 08:41:32;;;;;;;9.60;6.68;;;;;;;24.50;40.11;95593.06;5100273;28;20583;-81
2022/10/21 08:44:03;;;;;;;9.20;7.65;;;;;;;23.91;40.50;95533.69;5099374;28;20243;-82
2022/10/21 08:46:35;;;;;;;7.70;6.90;;;;;;;24.10;40.41;95575.72;5103576;28;20196;-82
2022/10/21 08:49:08;;;;;;;11.77;6.88;;;;;;;23.96;40.47;95587.94;5108711;28;20306;-81
2022/10/21 08:51:40;;;;;;;8.73;7.47;;;;;;;23.85;40.62;95588.56;5105894;28;20259;-81
2022/10/21 08:54:16;;;;;;;11.55;7.40;;;;;;;23.73;40.68;95583.09;5096821;28;20618;-81
2022/10/21 08:56:43;;;;;;;9.77;7.65;;;;;;;23.62;41.11;95581.00;5106935;28;20197;-82
2022/10/21 08:59:20;;;;;;;11.88;7.40;;;;;;;23.34;40.89;95549.81;5102705;28;20621;-81
2022/10/21 09:01:54;;;;;;;10.80;7.38;;;;;;;23.39;41.19;95570.91;5105510;28;20316;-82
2022/10/21 09:04:28;;;;;;;8.70;7.28;;;;;;;22.70;41.39;95470.84;5103861;28;20238;-82
2022/10/21 09:07:04;;;;;;;11.48;8.02;;;;;;;23.15;41.57;95564.41;5101252;28;20636;-82
2022/10/21 09:09:36;;;;;;;10.02;7.43;;;;;;;22.64;41.70;95495.09;5101908;28;20196;-82
2022/10/21 09:12:08;;;;;;;9.50;7.75;;;;;;;22.86;41.83;95550.59;5110875;28;20988;-79
2022/10/21 09:15:00;;;;;;;10.48;8.02;;;;;;;22.46;42.01;95503.44;5107758;28;20607;-83
2022/10/21 09:17:56;;;;;;;8.80;6.93;;;;;;;22.43;42.05;95529.88;5101736;28;20193;-80
2022/10/21 09:20:38;;;;;;;13.85;8.25;;;;;;;22.24;42.17;95523.53;5097890;28;20197;-82
2022/10/21 09:23:19;;;;;;;10.95;7.32;;;;;;;21.52;42.47;95422.16;5107277;28;20679;-82
2022/10/21 09:25:55;;;;;;;10.40;8.93;;;;;;;22.25;42.63;95542.56;5105661;28;20204;-80
2022/10/21 09:28:25;;;;;;;10.95;7.88;;;;;;;21.20;42.74;95392.19;5100409;28;20224;-83
2022/10/21 09:30:54;;;;;;;12.55;8.48;;;;;;;21.79;42.72;95483.06;5101561;28;20190;-82
2022/10/21 09:33:25;;;;;;;10.77;8.07;;;;;;;21.72;42.88;95492.63;5105458;28;20663;-81
2022/10/21 09:36:00;;;;;;;10.45;8.75;;;;;;;21.90;43.21;95528.63;5102083;28;20613;-81
2022/10/21 09:38:38;;;;;;;10.68;8.07;;;;;;;21.40;43.06;95475.69;5101445;28;20744;-81
2022/10/21 09:41:07;;;;;;;9.20;7.85;;;;;;;21.72;43.43;95531.69;5096440;28;20185;-83
2022/10/21 09:43:34;;;;;;;13.95;8.65;;;;;;;21.33;43.34;95490.44;5108133;28;20208;-83
2022/10/21 09:46:01;;;;;;;11.07;8.35;;;;;;;20.86;43.49;95424.91;5098758;28;20193;-81
2022/10/21 09:48:38;;;;;;;8.73;7.82;;;;;;;21.41;43.68;95526.75;5102190;28;20193;-81
2022/10/21 09:51:12;;;;;;;14.95;8.85;;;;;;;21.43;43.92;95533.38;5103152;28;20276;-85
2022/10/21 09:53:46;;;;;;;9.10;8.18;;;;;;;21.12;43.98;95488.59;5108399;28;20618;-82
2022/10/21 09:56:17;;;;;;;14.10;8.70;;;;;;;21.30;43.85;95530.63;5105575;28;20186;-85
2022/10/21 09:58:49;;;;;;;10.48;7.88;;;;;;;21.11;44.01;95502.56;5106222;28;20216;-83
2022/10/21 10:01:19;;;;;;;10.15;8.65;;;;;;;20.52;44.11;95412.50;5105399;28;20630;-81
2022/10/21 10:03:48;;;;;;;10.35;7.90;;;;;;;21.26;44.05;95529.38;5101603;28;20220;-81
2022/10/21 10:06:32;;;;;;;10.15;8.43;;;;;;;21.23;44.24;95516.72;5107717;28;20196;-82
2022/10/21 10:09:14;;;;;;;10.85;8.05;;;;;;;21.21;44.24;95514.31;5101756;28;20197;-81
2022/10/21 10:11:55;;;;;;;9.75;7.85;;;;;;;21.19;44.37;95510.25;5100349;28;20718;-81
2022/10/21 10:14:27;;;;;;;9.85;7.78;;;;;;;21.17;44.25;95502.66;5104502;28;20215;-81
2022/10/21 10:16:54;;;;;;;10.35;8.10;;;;;;;20.89;44.37;95460.09;5100115;28;20656;-82
2022/10/21 10:19:24;;;;;;;12.45;8.20;;;;;;;20.52;44.50;95412.50;5103875;28;20201;-82
2022/10/21 10:22:13;;;;;;;11.60;8.45;;;;;;;21.11;44.40;95505.16;5107259;28;20565;-81
2022/10/21 10:24:41;;;;;;;11.73;7.75;;;;;;;19.43;44.21;95246.06;5106156;28;20278;-81
2022/10/21 10:27:14;;;;;;;13.85;8.70;;;;;;;21.05;44.52;95510.13;5107201;28;20282;-82
2022/10/21 10:29:42;;;;;;;9.68;8.48;;;;;;;21.05;44.51;95509.31;5104343;28;20212;-82
2022/10/21 10:32:15;;;;;;;9.98;8.18;;;;;;;21.02;44.57;95497.47;5101032;28;20192;-81
2022/10/21 10:34:52;;;;;;;9.98;8.65;;;;;;;20.22;44.63;95383.09;5099861;28;20189;-79
2022/10/21 10:37:22;;;;;;;10.73;8.10;;;;;;;20.77;44.55;95463.19;5097720;28;20686;-81
2022/10/21 10:39:52;;;;;;;10.88;8.65;;;;;;;20.80;44.56;95459.41;5103593;28;20193;-83
2022/10/21 10:42:21;;;;;;;10.13;8.07;;;;;;;20.62;44.67;95426.00;5100516;28;20649;-81
2022/10/21 10:44:53;;;;;;;11.60;9.13;;;;;;;20.96;44.55;95472.19;5098931;28;20235;-82
2022/10/21 10:47:25;;;;;;;10.45;7.75;;;;;;;20.94;44.72;95463.78;5098590;28;20727;-81
2022/10/21 10:49:52;;;;;;;13.00;8.73;;;;;;;20.50;44.64;95410.06;5096760;28;20205;-80
2022/10/21 10:52:23;;;;;;;9.53;7.83;;;;;;;20.90;44.69;95459.94;5103372;28;20692;-82
2022/10/21 10:55:18;;;;;;;10.05;9.00;;;;;;;20.89;44.82;95454.91;5109293;28;20325;-83
2022/10/21 10:57:52;;;;;;;11.63;8.40;;;;;;;20.66;44.80;95427.25;5103908;28;20228;-84
2022/10/21 11:00:20;;;;;;;11.15;9.02;;;;;;;20.83;44.79;95456.44;5106093;28;20289;-82
2022/10/21 11:02:57;;;;;;;8.93;8.02;;;;;;;20.82;44.84;95452.25;5103265;28;20201;-81
2022/10/21 11:05:28;;;;;;;10.25;8.40;;;;;;;20.80;44.87;95449.81;5101047;28;20228;-82
2022/10/21 11:08:00;;;;;;;9.73;8.07;;;;;;;20.46;44.88;95394.97;5103291;28;20188;-81
2022/10/21 11:10:32;;;;;;;9.32;8.40;;;;;;;20.66;44.81;95427.25;5099558;28;20261;-79
2022/10/21 11:12:59;;;;;;;8.82;7.65;;;;;;;20.59;44.91;95410.75;5097993;28;20189;-82
2022/10/21 11:15:37;;;;;;;10.48;9.35;;;;;;;20.74;45.16;95423.75;5103240;28;20677;-81
2022/10/21 11:18:16;;;;;;;10.90;9.23;;;;;;;20.53;45.10;95395.91;5098932;28;20660;-81
2022/10/21 11:20:50;;;;;;;10.33;7.80;;;;;;;20.17;45.13;95333.50;5092071;28;20196;-81
2022/10/21 11:23:38;;;;;;;9.82;7.90;;;;;;;20.72;45.08;95429.13;5100402;28;20669;-81
2022/10/21 11:26:13;;;;;;;9.90;8.00;;;;;;;20.72;44.94;95425.72;5101357;28;20193;-80
2022/10/21 11:28:47;;;;;;;11.53;8.53;;;;;;;20.35;45.13;95364.28;5097434;28;20251;-80
2022/10/21 11:31:23;;;;;;;11.57;7.82;;;;;;;19.72;45.16;95260.03;5099758;28;20185;-81
2022/10/21 11:33:56;;;;;;;11.35;8.43;;;;;;;20.54;45.22;95392.31;5101980;28;20197;-82
2022/10/21 11:36:32;;;;;;;12.05;8.73;;;;;;;20.68;45.34;95414.06;5096670;28;20181;-80
2022/10/21 11:39:32;;;;;;;11.38;8.43;;;;;;;20.67;45.46;95408.06;5098611;28;20181;-82
2022/10/21 11:42:11;;;;;;;10.57;9.07;;;;;;;20.66;45.51;95410.84;5105796;28;20192;-80